Norris Rancho Marino Reserve, California Weather observations

Data are for 10 minute period ending at time listed.
 Day   Time   Solar   Ave.   Ave.  Ave.  Vector  Max.   Baro.   Total    
  of    of     Rad.   Air    Rel.  Wind   Wind   Wind  Press.  Precip.   
Year   Day            Temp.  Hum.  Speed  Dir.   Gust                    
2015   (PST)  Kw/m2    F      %     mph   deg.    mph    mb.     in.     
-------------------------------------------------------------------------
 212   16:20   0.26   65.1    91    8.9   290    11.4   1012.9    0.00 
 212   16:30   0.25   65.1    91    8.8   292    11.9   1012.8    0.00 
 212   16:40   0.27   65.0    91    9.3   291    11.8   1012.8    0.00 
 212   16:50   0.28   65.4    90    9.2   289    11.7   1012.7    0.00 
 212   17:00   0.27   65.2    90    9.3   289    12.2   1012.6    0.00 
 212   17:10   0.31   65.4    90    9.1   291    12.4   1012.6    0.00 
 212   17:20   0.26   65.2    90    9.8   293    12.5   1012.4    0.00 
 212   17:30   0.27   65.3    90    9.7   295    14.0   1012.3    0.00 
 212   17:40   0.24   65.2    90    9.3   291    12.2   1012.2    0.00 
 212   17:50   0.22   64.9    91    8.6   296    12.0   1012.1    0.00 
 212   18:00   0.18   65.0    91    7.9   297    11.6   1012.0    0.00 
 212   18:10   0.14   64.8    91    8.0   296    11.5   1012.0    0.00 
 212   18:20   0.11   64.5    92    7.8   302    11.0   1011.9    0.00 
 212   18:30   0.09   64.2    93    8.5   294    12.3   1012.0    0.00 
 212   18:40   0.07   63.8    94    7.4   298    11.0   1012.2    0.00 
 212   18:50   0.04   63.6    95    7.1   297     9.9   1012.3    0.00 
 212   19:00   0.02   63.3    95    6.7   306     9.0   1012.4    0.00 
 212   19:10   0.01   63.1    95    4.8   302     8.1   1012.4    0.00 
 212   19:20   0.01   63.0    96    4.9   313     6.7   1012.5    0.00 
 212   19:30   0.00   62.9    96    4.5   316     7.7   1012.5    0.00 
 212   19:40   0.00   62.9    96    4.2   321     6.6   1012.7    0.00 
 212   19:50   0.00   62.7    96    4.1   308     5.9   1012.8    0.00 
 212   20:00   0.00   62.5    97    3.8   314     6.0   1012.8    0.00 
 212   20:10   0.00   62.5    97    3.6   324     5.6   1012.8    0.00 
 212   20:20   0.00   62.5    97    2.2   324     4.0   1012.9    0.00 
 212   20:30   0.00   62.3    97    1.2   328     2.7   1012.9    0.00 
 212   20:40   0.00   62.0    97    0.9     8     2.0   1013.1    0.00 
 212   20:50   0.00   62.6    98    0.5   276     1.8   1013.1    0.00 
 212   21:00   0.00   62.9    98    0.7   276     2.3   1013.2    0.00 
 212   21:10   0.00   63.1    98    1.5   282     3.0   1013.3    0.00 
 212   21:20   0.00   63.1    98    5.0   300     7.6   1013.2    0.00 
 212   21:30   0.00   63.0    99    5.0   298     7.7   1013.4    0.00 
 212   21:40   0.00   63.1    99    5.6   297     7.5   1013.4    0.00 
 212   21:50   0.00   63.0    99    7.9   292    12.6   1013.4    0.00 
 212   22:00   0.00   62.8    99    9.5   290    12.8   1013.3    0.00 
 212   22:10   0.00   62.8   100    8.4   292    11.3   1013.4    0.00 
 212   22:20   0.00   62.8   100    9.2   294    11.8   1013.3    0.00 
 212   22:30   0.00   62.7   100    9.0   296    12.1   1013.3    0.00 
 212   22:40   0.00   62.6   100    9.0   297    11.5   1013.3    0.00 
 212   22:50   0.00   62.6   100    7.9   295     9.9   1013.2    0.00 
 212   23:00   0.00   62.5   100    7.5   293     9.5   1013.2    0.00 
 212   23:10   0.00   62.5   100    6.3   296     8.7   1013.2    0.00 
 212   23:20   0.00   62.5   100    5.7   296     7.9   1013.2    0.00 
 212   23:30   0.00   62.3   100    4.0   304     5.3   1013.1    0.00 
 212   23:40   0.00   62.2   100    5.0   323     7.5   1012.9    0.00 
 212   23:50   0.00   62.2   100    5.0   341     7.7   1012.9    0.00 
 213    0:00   0.00   62.3    99    3.7   360     5.6   1012.8    0.00 
 213    0:10   0.00   62.5    99    2.4    12     4.4   1012.8    0.00 
 213    0:20   0.00   62.7    98    4.6   298     9.1   1012.9    0.00 
 213    0:30   0.00   62.6    99    7.0   294     8.4   1012.8    0.00 
 213    0:40   0.00   62.5   100    6.3   297     8.3   1012.8    0.00 
 213    0:50   0.00   62.4   100    5.2   297     7.2   1012.8    0.00 
 213    1:00   0.00   62.3   100    5.6   295     7.5   1012.8    0.00 
 213    1:10   0.00   62.3   100    4.8   287     6.9   1012.8    0.00 
 213    1:20   0.00   62.2   100    5.9   288     7.2   1012.6    0.00 
 213    1:30   0.00   62.2   100    5.6   296     7.3   1012.6    0.00 
 213    1:40   0.00   62.2    99    5.4   297     7.2   1012.7    0.00 
 213    1:50   0.00   62.2    99    5.3   292     8.4   1012.6    0.00 
 213    2:00   0.00   62.3    99    5.8   273     8.3   1012.7    0.00 
 213    2:10   0.00   62.2    99    6.8   259    10.2   1012.7    0.00 
 213    2:20   0.00   62.3    99    4.0   267     6.4   1012.7    0.00 
 213    2:30   0.00   62.3    99    2.2   293     4.2   1012.7    0.00 
 213    2:40   0.00   62.3    99    0.7   347     1.4   1012.6    0.00 
 213    2:50   0.00   62.2    99    1.3   339     3.1   1012.7    0.00 
 213    3:00   0.00   62.2    98    2.9   298     4.5   1012.6    0.00 
 213    3:10   0.00   62.4    98    4.1   298     6.2   1012.6    0.00 
 213    3:20   0.00   62.3    98    4.0   296     6.3   1012.6    0.00 
 213    3:30   0.00   62.3    98    2.4   279     4.5   1012.6    0.00 
 213    3:40   0.00   62.4    97    3.9   292     6.1   1012.5    0.00 
 213    3:50   0.00   62.4    97    4.0   298     6.2   1012.5    0.00 
 213    4:00   0.00   62.3    97    5.7   293     8.5   1012.5    0.00 
 213    4:10   0.00   62.1    98    5.6   298     7.3   1012.5    0.00 
 213    4:20   0.00   62.0    98    5.7   287     7.7   1012.5    0.00 
 213    4:30   0.00   62.0    98    6.8   282     8.6   1012.6    0.00 
 213    4:40   0.00   61.8    98    6.2   280     8.3   1012.7    0.00 
 213    4:50   0.00   61.7    98    4.8   294     7.5   1012.9    0.00 
 213    5:00   0.00   61.7    98    5.8   291     7.9   1012.9    0.00 
 213    5:10   0.00   61.6    98    7.8   292    10.7   1013.1    0.00 
 213    5:20   0.00   61.6    97    7.0   292     8.8   1013.2    0.00 
 213    5:30   0.01   61.7    96    6.6   290     8.6   1013.2    0.00 
 213    5:40   0.01   61.7    95    6.4   288     8.7   1013.3    0.00 
 213    5:50   0.01   61.8    95    6.3   286     8.4   1013.4    0.00 
 213    6:00   0.03   61.8    94    5.6   284     8.3   1013.4    0.00 
 213    6:10   0.04   61.8    94    3.6   314     6.2   1013.4    0.00 
 213    6:20   0.05   62.1    94    3.8   328     6.6   1013.4    0.00 
 213    6:30   0.05   62.1    93    4.9   318     9.8   1013.5    0.00 
 213    6:40   0.07   62.0    93    6.2   297     9.9   1013.5    0.00 
 213    6:50   0.08   62.2    93    6.2   302     9.2   1013.5    0.00 
 213    7:00   0.08   62.3    93    8.0   295    11.3   1013.6    0.00 
 213    7:10   0.08   62.4    93    9.4   293    12.6   1013.8    0.00 
 213    7:20   0.11   62.7    92    8.7   310    12.4   1013.7    0.00 
 213    7:30   0.16   63.6    89    8.7   312    11.8   1013.7    0.00 
 213    7:40   0.18   64.2    87    7.2   302    11.2   1013.8    0.00 
 213    7:50   0.22   64.3    88    8.6   294    11.5   1013.7    0.00 
 213    8:00   0.24   64.4    88    9.4   295    12.5   1013.7    0.00 
 213    8:10   0.32   64.8    86   11.1   293    13.8   1013.6    0.00 
 213    8:20   0.41   65.2    86   11.0   291    14.5   1013.5    0.00 
 213    8:30   0.51   66.0    84   10.8   290    15.0   1013.5    0.00 
 213    8:40   0.55   66.1    83   11.3   292    15.2   1013.3    0.00 
 213    8:50   0.58   66.2    83   11.1   292    14.7   1013.2    0.00 
 213    9:00   0.61   66.2    83   11.8   291    16.2   1013.1    0.00 
 213    9:10   0.64   66.4    82   11.6   292    15.3   1013.0    0.00 
 213    9:20   0.67   66.3    82   11.3   290    16.7   1012.9    0.00 
 213    9:30   0.69   66.9    80   11.8   294    15.9   1012.8    0.00 
 213    9:40   0.72   66.6    81   12.2   288    16.2   1012.8    0.00 
 213    9:50   0.74   67.2    80   10.5   289    16.4   1012.7    0.00 
 213   10:00   0.77   67.8    79   12.0   291    17.5   1012.6    0.00 
 213   10:10   0.79   67.1    80   13.0   291    17.4   1012.6    0.00 
 213   10:20   0.81   67.5    79   12.7   291    16.4   1012.6    0.00 
 213   10:30   0.82   67.7    79   13.5   293    17.6   1012.6    0.00 
 213   10:40   0.84   67.6    80   12.1   291    15.9   1012.5    0.00 
 213   10:50   0.86   67.8    80   13.3   291    20.0   1012.4    0.00 
 213   11:00   0.87   68.2    78   13.4   291    18.9   1012.3    0.00 
 213   11:10   0.89   67.9    79   15.1   293    20.6   1012.2    0.00 
 213   11:20   0.90   68.1    79   12.7   290    17.6   1012.2    0.00 
 213   11:30   0.90   68.0    78   15.0   294    24.3   1012.1    0.00 
 213   11:40   0.91   68.3    78   15.6   294    20.7   1012.1    0.00 
 213   11:50   0.91   68.6    77   14.4   291    19.1   1012.1    0.00 
 213   12:00   0.92   68.3    78   13.8   289    18.7   1012.1    0.00 
 213   12:10   0.93   68.6    78   14.4   286    20.0   1012.1    0.00 
 213   12:20   0.93   69.1    77   13.8   291    21.3   1011.9    0.00 
 213   12:30   0.93   68.7    77   13.8   289    19.8   1011.8    0.00 
 213   12:40   0.93   68.6    77   13.6   291    21.4   1011.7    0.00 
 213   12:50   0.92   68.6    77   13.2   291    19.2   1011.6    0.00 
 213   13:00   0.91   68.4    78   11.9   293    17.3   1011.5    0.00 
 213   13:10   0.91   68.3    79   13.9   296    18.3   1011.3    0.00 
 213   13:20   0.90   68.4    79   14.6   294    18.3   1011.2    0.00 
 213   13:30   0.89   68.0    80   14.6   295    19.5   1011.1    0.00 
 213   13:40   0.88   68.5    79   13.9   294    17.5   1011.0    0.00 
 213   13:50   0.87   68.0    80   14.7   295    18.9   1010.9    0.00 
 213   14:00   0.83   68.2    80   14.4   295    18.0   1010.9    0.00 
 213   14:10   0.83   68.6    80   14.4   294    18.3   1010.8    0.00 
 213   14:20   0.82   67.8    81   14.3   295    17.7   1010.8    0.00 
 213   14:30   0.80   68.4    80   13.2   296    17.7   1010.7    0.00 
 213   14:40   0.78   68.3    80   14.3   295    18.3   1010.6    0.00 
 213   14:50   0.76   68.1    80   13.9   295    17.3   1010.7    0.00 
 213   15:00   0.74   67.9    81   13.5   295    17.8   1010.7    0.00 
 213   15:10   0.72   68.3    80   13.2   295    18.3   1010.7    0.00 
 213   15:20   0.69   68.2    80   12.6   293    17.6   1010.6    0.00 
 213   15:30   0.67   68.6    80   11.3   293    15.5   1010.6    0.00 
 213   15:40   0.64   67.8    81   11.5   290    16.7   1010.6    0.00 
 213   15:50   0.61   67.4    82   11.4   288    14.5   1010.7    0.00 
 213   16:00   0.57   67.7    82   10.9   288    14.5   1010.7    0.00 
 213   16:10   0.55   67.6    82   10.3   289    13.8   1010.6    0.00 

Return to Norris Rancho Marino Reserve graphs page.


Western Regional Climate Center,wrcc@dri.edu